sensor_id;sensor_type;location;lat;lon;timestamp;P1;durP1;ratioP1;P2;durP2;ratioP2
15990;SDS011;8100;50.994;4.538;2022-10-16T00:00:48;1.42;;;0.88;;
15990;SDS011;8100;50.994;4.538;2022-10-16T00:03:35;0.90;;;0.80;;
15990;SDS011;8100;50.994;4.538;2022-10-16T00:06:23;1.40;;;0.80;;
15990;SDS011;8100;50.994;4.538;2022-10-16T00:09:11;1.55;;;0.73;;
15990;SDS011;8100;50.994;4.538;2022-10-16T00:11:58;0.80;;;0.60;;
15990;SDS011;8100;50.994;4.538;2022-10-16T00:14:45;2.35;;;0.68;;
15990;SDS011;8100;50.994;4.538;2022-10-16T00:17:34;1.10;;;0.65;;
15990;SDS011;8100;50.994;4.538;2022-10-16T00:20:21;0.80;;;0.57;;
15990;SDS011;8100;50.994;4.538;2022-10-16T00:23:08;2.17;;;0.70;;
15990;SDS011;8100;50.994;4.538;2022-10-16T00:25:56;2.17;;;0.63;;
15990;SDS011;8100;50.994;4.538;2022-10-16T00:28:45;1.25;;;0.85;;
15990;SDS011;8100;50.994;4.538;2022-10-16T00:31:32;2.45;;;0.70;;
15990;SDS011;8100;50.994;4.538;2022-10-16T00:34:21;1.95;;;0.60;;
15990;SDS011;8100;50.994;4.538;2022-10-16T00:37:08;1.23;;;0.57;;
15990;SDS011;8100;50.994;4.538;2022-10-16T00:39:56;1.98;;;0.60;;
15990;SDS011;8100;50.994;4.538;2022-10-16T00:42:43;0.63;;;0.47;;
15990;SDS011;8100;50.994;4.538;2022-10-16T00:45:30;0.50;;;0.47;;
15990;SDS011;8100;50.994;4.538;2022-10-16T00:48:17;0.75;;;0.55;;
15990;SDS011;8100;50.994;4.538;2022-10-16T00:51:06;2.17;;;0.60;;
15990;SDS011;8100;50.994;4.538;2022-10-16T00:53:54;1.40;;;0.60;;
15990;SDS011;8100;50.994;4.538;2022-10-16T00:56:41;1.00;;;0.60;;
15990;SDS011;8100;50.994;4.538;2022-10-16T00:59:30;1.27;;;0.57;;
15990;SDS011;8100;50.994;4.538;2022-10-16T01:02:22;0.90;;;0.50;;
15990;SDS011;8100;50.994;4.538;2022-10-16T01:05:10;2.10;;;0.55;;
15990;SDS011;8100;50.994;4.538;2022-10-16T01:07:59;1.33;;;0.60;;
15990;SDS011;8100;50.994;4.538;2022-10-16T01:10:56;0.88;;;0.50;;
15990;SDS011;8100;50.994;4.538;2022-10-16T01:13:48;0.80;;;0.55;;
15990;SDS011;8100;50.994;4.538;2022-10-16T01:16:40;1.23;;;0.60;;
15990;SDS011;8100;50.994;4.538;2022-10-16T01:19:38;1.15;;;0.75;;
15990;SDS011;8100;50.994;4.538;2022-10-16T01:22:43;0.80;;;0.45;;
15990;SDS011;8100;50.994;4.538;2022-10-16T01:25:44;1.75;;;0.60;;
15990;SDS011;8100;50.994;4.538;2022-10-16T01:28:51;1.30;;;0.70;;
15990;SDS011;8100;50.994;4.538;2022-10-16T01:31:44;0.65;;;0.47;;
15990;SDS011;8100;50.994;4.538;2022-10-16T01:34:35;0.80;;;0.50;;
15990;SDS011;8100;50.994;4.538;2022-10-16T01:37:31;2.55;;;0.60;;
15990;SDS011;8100;50.994;4.538;2022-10-16T01:40:21;1.08;;;0.73;;
15990;SDS011;8100;50.994;4.538;2022-10-16T01:43:12;0.40;;;0.40;;
15990;SDS011;8100;50.994;4.538;2022-10-16T01:46:05;2.75;;;0.60;;
15990;SDS011;8100;50.994;4.538;2022-10-16T01:48:53;1.15;;;0.70;;
15990;SDS011;8100;50.994;4.538;2022-10-16T01:51:41;0.52;;;0.52;;
15990;SDS011;8100;50.994;4.538;2022-10-16T01:54:32;1.17;;;0.70;;
15990;SDS011;8100;50.994;4.538;2022-10-16T01:57:21;2.13;;;0.60;;
15990;SDS011;8100;50.994;4.538;2022-10-16T02:00:11;0.63;;;0.50;;
15990;SDS011;8100;50.994;4.538;2022-10-16T02:03:01;4.75;;;0.80;;
15990;SDS011;8100;50.994;4.538;2022-10-16T02:05:50;1.63;;;0.88;;
15990;SDS011;8100;50.994;4.538;2022-10-16T02:08:39;2.22;;;0.93;;
15990;SDS011;8100;50.994;4.538;2022-10-16T02:11:29;1.40;;;0.80;;
15990;SDS011;8100;50.994;4.538;2022-10-16T02:14:16;3.05;;;0.80;;
15990;SDS011;8100;50.994;4.538;2022-10-16T02:17:09;0.90;;;0.80;;
15990;SDS011;8100;50.994;4.538;2022-10-16T02:19:59;3.83;;;0.70;;
15990;SDS011;8100;50.994;4.538;2022-10-16T02:22:47;1.27;;;0.60;;
15990;SDS011;8100;50.994;4.538;2022-10-16T02:25:37;1.10;;;0.70;;
15990;SDS011;8100;50.994;4.538;2022-10-16T02:28:29;0.88;;;0.60;;
15990;SDS011;8100;50.994;4.538;2022-10-16T02:31:25;0.60;;;0.60;;
15990;SDS011;8100;50.994;4.538;2022-10-16T02:34:17;1.17;;;0.60;;
15990;SDS011;8100;50.994;4.538;2022-10-16T02:37:08;0.70;;;0.57;;
15990;SDS011;8100;50.994;4.538;2022-10-16T02:39:56;1.77;;;0.60;;
15990;SDS011;8100;50.994;4.538;2022-10-16T02:42:44;2.35;;;0.70;;
15990;SDS011;8100;50.994;4.538;2022-10-16T02:45:36;2.17;;;0.80;;
15990;SDS011;8100;50.994;4.538;2022-10-16T02:48:24;1.15;;;0.70;;
15990;SDS011;8100;50.994;4.538;2022-10-16T02:51:11;2.92;;;0.80;;
15990;SDS011;8100;50.994;4.538;2022-10-16T02:53:59;1.13;;;0.80;;
15990;SDS011;8100;50.994;4.538;2022-10-16T02:56:46;2.50;;;0.73;;
15990;SDS011;8100;50.994;4.538;2022-10-16T02:59:34;2.63;;;0.80;;
15990;SDS011;8100;50.994;4.538;2022-10-16T03:02:21;0.95;;;0.70;;
15990;SDS011;8100;50.994;4.538;2022-10-16T03:05:08;1.73;;;0.60;;
15990;SDS011;8100;50.994;4.538;2022-10-16T03:07:56;1.00;;;0.77;;
15990;SDS011;8100;50.994;4.538;2022-10-16T03:10:46;1.55;;;0.80;;
15990;SDS011;8100;50.994;4.538;2022-10-16T03:13:34;1.25;;;0.80;;
15990;SDS011;8100;50.994;4.538;2022-10-16T03:16:21;1.00;;;0.70;;
15990;SDS011;8100;50.994;4.538;2022-10-16T03:19:08;1.98;;;1.00;;
15990;SDS011;8100;50.994;4.538;2022-10-16T03:21:55;1.90;;;1.00;;
15990;SDS011;8100;50.994;4.538;2022-10-16T03:24:43;1.65;;;0.80;;
15990;SDS011;8100;50.994;4.538;2022-10-16T03:27:31;2.08;;;0.90;;
15990;SDS011;8100;50.994;4.538;2022-10-16T03:30:19;1.77;;;0.80;;
15990;SDS011;8100;50.994;4.538;2022-10-16T03:33:06;2.35;;;0.98;;
15990;SDS011;8100;50.994;4.538;2022-10-16T03:35:53;0.75;;;0.70;;
15990;SDS011;8100;50.994;4.538;2022-10-16T03:38:41;2.85;;;1.00;;
15990;SDS011;8100;50.994;4.538;2022-10-16T03:41:28;2.60;;;0.90;;
15990;SDS011;8100;50.994;4.538;2022-10-16T03:44:17;2.90;;;0.80;;
15990;SDS011;8100;50.994;4.538;2022-10-16T03:47:04;1.33;;;0.70;;
15990;SDS011;8100;50.994;4.538;2022-10-16T03:49:51;1.33;;;0.80;;
15990;SDS011;8100;50.994;4.538;2022-10-16T03:52:38;1.73;;;0.73;;
15990;SDS011;8100;50.994;4.538;2022-10-16T03:55:25;0.80;;;0.68;;
15990;SDS011;8100;50.994;4.538;2022-10-16T03:58:13;3.17;;;0.80;;
15990;SDS011;8100;50.994;4.538;2022-10-16T04:01:01;2.90;;;0.95;;
15990;SDS011;8100;50.994;4.538;2022-10-16T04:03:49;2.97;;;0.85;;
15990;SDS011;8100;50.994;4.538;2022-10-16T04:06:36;1.55;;;0.70;;
15990;SDS011;8100;50.994;4.538;2022-10-16T04:09:23;1.60;;;0.80;;
15990;SDS011;8100;50.994;4.538;2022-10-16T04:12:10;1.25;;;0.73;;
15990;SDS011;8100;50.994;4.538;2022-10-16T04:14:57;2.47;;;0.90;;
15990;SDS011;8100;50.994;4.538;2022-10-16T04:17:46;3.25;;;0.88;;
15990;SDS011;8100;50.994;4.538;2022-10-16T04:20:33;2.63;;;0.82;;
15990;SDS011;8100;50.994;4.538;2022-10-16T04:23:20;2.20;;;0.95;;
15990;SDS011;8100;50.994;4.538;2022-10-16T04:26:09;2.78;;;0.85;;
15990;SDS011;8100;50.994;4.538;2022-10-16T04:28:56;4.78;;;1.02;;
15990;SDS011;8100;50.994;4.538;2022-10-16T04:31:43;2.95;;;0.70;;
15990;SDS011;8100;50.994;4.538;2022-10-16T04:34:32;4.63;;;0.90;;
15990;SDS011;8100;50.994;4.538;2022-10-16T04:37:22;1.67;;;0.60;;
15990;SDS011;8100;50.994;4.538;2022-10-16T04:40:10;2.13;;;1.00;;
15990;SDS011;8100;50.994;4.538;2022-10-16T04:42:57;1.20;;;0.73;;
15990;SDS011;8100;50.994;4.538;2022-10-16T04:45:45;2.38;;;1.00;;
15990;SDS011;8100;50.994;4.538;2022-10-16T04:48:32;3.72;;;1.05;;
15990;SDS011;8100;50.994;4.538;2022-10-16T04:51:21;4.18;;;0.90;;
15990;SDS011;8100;50.994;4.538;2022-10-16T04:54:08;1.00;;;0.68;;
15990;SDS011;8100;50.994;4.538;2022-10-16T04:56:55;1.08;;;0.80;;
15990;SDS011;8100;50.994;4.538;2022-10-16T04:59:42;2.53;;;1.02;;
15990;SDS011;8100;50.994;4.538;2022-10-16T05:02:29;2.15;;;0.70;;
15990;SDS011;8100;50.994;4.538;2022-10-16T05:05:16;3.70;;;0.80;;
15990;SDS011;8100;50.994;4.538;2022-10-16T05:08:06;2.53;;;0.70;;
15990;SDS011;8100;50.994;4.538;2022-10-16T05:10:53;1.15;;;0.73;;
15990;SDS011;8100;50.994;4.538;2022-10-16T05:13:40;2.30;;;0.80;;
15990;SDS011;8100;50.994;4.538;2022-10-16T05:16:27;1.42;;;0.80;;
15990;SDS011;8100;50.994;4.538;2022-10-16T05:19:15;1.48;;;0.70;;
15990;SDS011;8100;50.994;4.538;2022-10-16T05:22:02;1.27;;;0.80;;
15990;SDS011;8100;50.994;4.538;2022-10-16T05:24:51;2.00;;;0.73;;
15990;SDS011;8100;50.994;4.538;2022-10-16T05:27:38;2.00;;;0.82;;
15990;SDS011;8100;50.994;4.538;2022-10-16T05:30:25;1.83;;;0.90;;
15990;SDS011;8100;50.994;4.538;2022-10-16T05:33:12;2.22;;;0.80;;
15990;SDS011;8100;50.994;4.538;2022-10-16T05:36:00;2.35;;;0.80;;
15990;SDS011;8100;50.994;4.538;2022-10-16T05:38:50;2.17;;;0.90;;
15990;SDS011;8100;50.994;4.538;2022-10-16T05:41:39;1.15;;;0.77;;
15990;SDS011;8100;50.994;4.538;2022-10-16T05:44:26;2.00;;;0.65;;
15990;SDS011;8100;50.994;4.538;2022-10-16T05:47:13;3.17;;;1.00;;
15990;SDS011;8100;50.994;4.538;2022-10-16T05:50:00;2.33;;;0.80;;
15990;SDS011;8100;50.994;4.538;2022-10-16T05:52:49;1.27;;;0.77;;
15990;SDS011;8100;50.994;4.538;2022-10-16T05:55:36;3.83;;;0.90;;
15990;SDS011;8100;50.994;4.538;2022-10-16T05:58:25;1.73;;;0.93;;
15990;SDS011;8100;50.994;4.538;2022-10-16T06:01:16;2.35;;;0.70;;
15990;SDS011;8100;50.994;4.538;2022-10-16T06:04:04;1.77;;;0.98;;
15990;SDS011;8100;50.994;4.538;2022-10-16T06:06:51;2.10;;;0.98;;
15990;SDS011;8100;50.994;4.538;2022-10-16T06:09:39;1.48;;;1.00;;
15990;SDS011;8100;50.994;4.538;2022-10-16T06:12:26;1.00;;;0.80;;
15990;SDS011;8100;50.994;4.538;2022-10-16T06:15:15;1.73;;;0.90;;
15990;SDS011;8100;50.994;4.538;2022-10-16T06:18:02;3.25;;;1.00;;
15990;SDS011;8100;50.994;4.538;2022-10-16T06:20:49;1.75;;;0.98;;
15990;SDS011;8100;50.994;4.538;2022-10-16T06:23:36;4.68;;;1.13;;
15990;SDS011;8100;50.994;4.538;2022-10-16T06:26:24;2.53;;;0.90;;
15990;SDS011;8100;50.994;4.538;2022-10-16T06:29:13;3.38;;;0.90;;
15990;SDS011;8100;50.994;4.538;2022-10-16T06:32:03;1.83;;;0.90;;
15990;SDS011;8100;50.994;4.538;2022-10-16T06:34:51;0.98;;;0.70;;
15990;SDS011;8100;50.994;4.538;2022-10-16T06:37:38;1.23;;;0.85;;
15990;SDS011;8100;50.994;4.538;2022-10-16T06:40:26;1.92;;;0.70;;
15990;SDS011;8100;50.994;4.538;2022-10-16T06:43:14;5.50;;;1.08;;
15990;SDS011;8100;50.994;4.538;2022-10-16T06:46:02;4.80;;;0.93;;
15990;SDS011;8100;50.994;4.538;2022-10-16T06:48:52;2.00;;;1.15;;
15990;SDS011;8100;50.994;4.538;2022-10-16T06:51:40;1.80;;;1.10;;
15990;SDS011;8100;50.994;4.538;2022-10-16T06:54:33;0.93;;;0.70;;
15990;SDS011;8100;50.994;4.538;2022-10-16T06:57:21;2.38;;;0.90;;
15990;SDS011;8100;50.994;4.538;2022-10-16T07:00:08;1.48;;;0.88;;
15990;SDS011;8100;50.994;4.538;2022-10-16T07:02:56;1.70;;;0.90;;
15990;SDS011;8100;50.994;4.538;2022-10-16T07:05:44;3.67;;;0.88;;
15990;SDS011;8100;50.994;4.538;2022-10-16T07:08:31;1.80;;;1.10;;
15990;SDS011;8100;50.994;4.538;2022-10-16T07:11:20;2.67;;;0.88;;
15990;SDS011;8100;50.994;4.538;2022-10-16T07:14:12;1.73;;;0.75;;
15990;SDS011;8100;50.994;4.538;2022-10-16T07:17:02;2.25;;;1.05;;
15990;SDS011;8100;50.994;4.538;2022-10-16T07:19:50;3.50;;;0.80;;
15990;SDS011;8100;50.994;4.538;2022-10-16T07:22:40;1.42;;;0.95;;
15990;SDS011;8100;50.994;4.538;2022-10-16T07:25:27;1.60;;;0.90;;
15990;SDS011;8100;50.994;4.538;2022-10-16T07:28:14;2.25;;;0.88;;
15990;SDS011;8100;50.994;4.538;2022-10-16T07:31:01;3.50;;;0.98;;
15990;SDS011;8100;50.994;4.538;2022-10-16T07:33:50;1.27;;;0.70;;
15990;SDS011;8100;50.994;4.538;2022-10-16T07:36:40;1.00;;;0.77;;
15990;SDS011;8100;50.994;4.538;2022-10-16T07:39:29;1.50;;;0.98;;
15990;SDS011;8100;50.994;4.538;2022-10-16T07:42:16;2.03;;;1.00;;
15990;SDS011;8100;50.994;4.538;2022-10-16T07:45:03;1.52;;;0.88;;
15990;SDS011;8100;50.994;4.538;2022-10-16T07:47:51;2.60;;;0.73;;
15990;SDS011;8100;50.994;4.538;2022-10-16T07:50:38;1.48;;;0.88;;
15990;SDS011;8100;50.994;4.538;2022-10-16T07:53:26;3.53;;;0.90;;
15990;SDS011;8100;50.994;4.538;2022-10-16T07:56:15;3.30;;;0.98;;
15990;SDS011;8100;50.994;4.538;2022-10-16T07:59:03;2.58;;;1.10;;
15990;SDS011;8100;50.994;4.538;2022-10-16T08:01:51;1.88;;;0.80;;
15990;SDS011;8100;50.994;4.538;2022-10-16T08:04:38;1.63;;;1.13;;
15990;SDS011;8100;50.994;4.538;2022-10-16T08:07:25;1.17;;;0.70;;
15990;SDS011;8100;50.994;4.538;2022-10-16T08:10:14;3.25;;;1.10;;
15990;SDS011;8100;50.994;4.538;2022-10-16T08:13:05;2.42;;;0.70;;
15990;SDS011;8100;50.994;4.538;2022-10-16T08:15:53;2.33;;;1.00;;
15990;SDS011;8100;50.994;4.538;2022-10-16T08:18:40;2.58;;;1.10;;
15990;SDS011;8100;50.994;4.538;2022-10-16T08:21:28;1.50;;;0.82;;
15990;SDS011;8100;50.994;4.538;2022-10-16T08:24:15;1.52;;;0.80;;
15990;SDS011;8100;50.994;4.538;2022-10-16T08:27:02;3.63;;;0.88;;
15990;SDS011;8100;50.994;4.538;2022-10-16T08:29:51;3.67;;;0.73;;
15990;SDS011;8100;50.994;4.538;2022-10-16T08:32:38;3.25;;;1.23;;
15990;SDS011;8100;50.994;4.538;2022-10-16T08:35:26;0.80;;;0.60;;
15990;SDS011;8100;50.994;4.538;2022-10-16T08:38:14;2.65;;;0.70;;
15990;SDS011;8100;50.994;4.538;2022-10-16T08:41:10;2.83;;;0.80;;
15990;SDS011;8100;50.994;4.538;2022-10-16T08:44:22;1.10;;;0.70;;
15990;SDS011;8100;50.994;4.538;2022-10-16T08:47:19;2.08;;;0.73;;
15990;SDS011;8100;50.994;4.538;2022-10-16T08:50:10;2.42;;;1.02;;
15990;SDS011;8100;50.994;4.538;2022-10-16T08:52:59;2.83;;;0.93;;
15990;SDS011;8100;50.994;4.538;2022-10-16T08:55:46;6.05;;;1.00;;
15990;SDS011;8100;50.994;4.538;2022-10-16T08:58:37;3.22;;;1.10;;
15990;SDS011;8100;50.994;4.538;2022-10-16T09:01:25;0.95;;;0.63;;
15990;SDS011;8100;50.994;4.538;2022-10-16T09:07:39;6.18;;;0.90;;
15990;SDS011;8100;50.994;4.538;2022-10-16T09:10:38;3.42;;;0.90;;
15990;SDS011;8100;50.994;4.538;2022-10-16T09:13:33;2.63;;;1.08;;
15990;SDS011;8100;50.994;4.538;2022-10-16T09:16:27;3.67;;;1.00;;
15990;SDS011;8100;50.994;4.538;2022-10-16T09:19:20;1.05;;;0.77;;
15990;SDS011;8100;50.994;4.538;2022-10-16T09:22:16;4.18;;;0.70;;
15990;SDS011;8100;50.994;4.538;2022-10-16T09:25:10;4.78;;;0.85;;
15990;SDS011;8100;50.994;4.538;2022-10-16T09:27:59;1.92;;;0.80;;
15990;SDS011;8100;50.994;4.538;2022-10-16T09:30:46;4.53;;;1.10;;
15990;SDS011;8100;50.994;4.538;2022-10-16T09:33:35;2.88;;;0.80;;
15990;SDS011;8100;50.994;4.538;2022-10-16T09:36:25;1.85;;;0.70;;
15990;SDS011;8100;50.994;4.538;2022-10-16T09:39:16;4.93;;;0.90;;
15990;SDS011;8100;50.994;4.538;2022-10-16T09:42:09;4.63;;;1.30;;
15990;SDS011;8100;50.994;4.538;2022-10-16T09:44:58;2.55;;;1.00;;
15990;SDS011;8100;50.994;4.538;2022-10-16T09:47:45;5.97;;;1.10;;
15990;SDS011;8100;50.994;4.538;2022-10-16T09:50:32;2.10;;;0.85;;
15990;SDS011;8100;50.994;4.538;2022-10-16T09:53:19;4.30;;;0.80;;
15990;SDS011;8100;50.994;4.538;2022-10-16T09:56:10;3.25;;;0.68;;
15990;SDS011;8100;50.994;4.538;2022-10-16T09:59:08;3.70;;;1.00;;
15990;SDS011;8100;50.994;4.538;2022-10-16T10:02:01;4.68;;;1.10;;
15990;SDS011;8100;50.994;4.538;2022-10-16T10:04:51;4.15;;;0.82;;
15990;SDS011;8100;50.994;4.538;2022-10-16T10:07:42;3.85;;;0.90;;
15990;SDS011;8100;50.994;4.538;2022-10-16T10:10:31;3.42;;;0.80;;
15990;SDS011;8100;50.994;4.538;2022-10-16T10:13:22;3.13;;;0.85;;
15990;SDS011;8100;50.994;4.538;2022-10-16T10:16:12;2.28;;;0.77;;
15990;SDS011;8100;50.994;4.538;2022-10-16T10:19:12;2.78;;;0.80;;
15990;SDS011;8100;50.994;4.538;2022-10-16T10:22:01;2.97;;;0.90;;
15990;SDS011;8100;50.994;4.538;2022-10-16T10:28:32;2.97;;;0.60;;
15990;SDS011;8100;50.994;4.538;2022-10-16T10:31:38;2.50;;;0.70;;
15990;SDS011;8100;50.994;4.538;2022-10-16T10:34:44;1.92;;;0.80;;
15990;SDS011;8100;50.994;4.538;2022-10-16T10:41:01;4.32;;;0.60;;
15990;SDS011;8100;50.994;4.538;2022-10-16T10:44:03;4.72;;;0.98;;
15990;SDS011;8100;50.994;4.538;2022-10-16T10:46:57;2.55;;;0.50;;
15990;SDS011;8100;50.994;4.538;2022-10-16T10:49:55;2.22;;;0.80;;
15990;SDS011;8100;50.994;4.538;2022-10-16T10:52:52;1.88;;;0.75;;
15990;SDS011;8100;50.994;4.538;2022-10-16T10:55:45;2.60;;;0.70;;
15990;SDS011;8100;50.994;4.538;2022-10-16T10:58:55;1.92;;;0.60;;
15990;SDS011;8100;50.994;4.538;2022-10-16T11:02:06;4.97;;;0.70;;
15990;SDS011;8100;50.994;4.538;2022-10-16T11:05:09;1.83;;;0.68;;
15990;SDS011;8100;50.994;4.538;2022-10-16T11:08:11;3.65;;;0.60;;
15990;SDS011;8100;50.994;4.538;2022-10-16T11:11:04;1.77;;;0.60;;
15990;SDS011;8100;50.994;4.538;2022-10-16T11:13:57;3.60;;;0.60;;
15990;SDS011;8100;50.994;4.538;2022-10-16T11:16:52;1.75;;;0.60;;
15990;SDS011;8100;50.994;4.538;2022-10-16T11:19:44;1.02;;;0.45;;
15990;SDS011;8100;50.994;4.538;2022-10-16T11:22:36;1.00;;;0.60;;
15990;SDS011;8100;50.994;4.538;2022-10-16T11:25:29;1.83;;;0.57;;
15990;SDS011;8100;50.994;4.538;2022-10-16T11:28:18;3.92;;;1.02;;
15990;SDS011;8100;50.994;4.538;2022-10-16T11:31:11;2.63;;;0.80;;
15990;SDS011;8100;50.994;4.538;2022-10-16T11:34:05;5.00;;;1.08;;
15990;SDS011;8100;50.994;4.538;2022-10-16T11:37:03;1.90;;;0.68;;
15990;SDS011;8100;50.994;4.538;2022-10-16T11:39:56;2.85;;;0.73;;
15990;SDS011;8100;50.994;4.538;2022-10-16T11:42:51;3.63;;;0.75;;
15990;SDS011;8100;50.994;4.538;2022-10-16T11:45:44;1.13;;;0.60;;
15990;SDS011;8100;50.994;4.538;2022-10-16T11:48:36;3.50;;;0.57;;
15990;SDS011;8100;50.994;4.538;2022-10-16T11:51:31;3.78;;;0.73;;
15990;SDS011;8100;50.994;4.538;2022-10-16T11:54:24;2.55;;;0.80;;
15990;SDS011;8100;50.994;4.538;2022-10-16T11:57:20;1.23;;;0.70;;
15990;SDS011;8100;50.994;4.538;2022-10-16T12:00:10;1.88;;;0.60;;
15990;SDS011;8100;50.994;4.538;2022-10-16T12:03:10;3.53;;;0.60;;
15990;SDS011;8100;50.994;4.538;2022-10-16T12:06:12;1.77;;;0.60;;
15990;SDS011;8100;50.994;4.538;2022-10-16T12:09:10;2.45;;;0.90;;
15990;SDS011;8100;50.994;4.538;2022-10-16T12:12:03;1.15;;;0.63;;
15990;SDS011;8100;50.994;4.538;2022-10-16T12:14:59;2.30;;;0.57;;
15990;SDS011;8100;50.994;4.538;2022-10-16T12:17:48;3.30;;;0.57;;
15990;SDS011;8100;50.994;4.538;2022-10-16T12:20:36;2.17;;;0.63;;
15990;SDS011;8100;50.994;4.538;2022-10-16T12:23:23;2.45;;;0.60;;
15990;SDS011;8100;50.994;4.538;2022-10-16T12:26:12;1.67;;;0.65;;
15990;SDS011;8100;50.994;4.538;2022-10-16T12:29:10;2.22;;;0.68;;
15990;SDS011;8100;50.994;4.538;2022-10-16T12:32:01;5.97;;;0.60;;
15990;SDS011;8100;50.994;4.538;2022-10-16T12:34:49;4.90;;;0.80;;
15990;SDS011;8100;50.994;4.538;2022-10-16T12:37:37;1.85;;;0.80;;
15990;SDS011;8100;50.994;4.538;2022-10-16T12:40:26;3.63;;;0.60;;
15990;SDS011;8100;50.994;4.538;2022-10-16T12:43:27;6.03;;;1.33;;
15990;SDS011;8100;50.994;4.538;2022-10-16T12:46:24;1.30;;;0.90;;
15990;SDS011;8100;50.994;4.538;2022-10-16T12:49:23;2.10;;;0.60;;
15990;SDS011;8100;50.994;4.538;2022-10-16T12:52:25;2.08;;;0.70;;
15990;SDS011;8100;50.994;4.538;2022-10-16T12:55:15;2.60;;;0.75;;
15990;SDS011;8100;50.994;4.538;2022-10-16T12:58:09;3.83;;;1.63;;
15990;SDS011;8100;50.994;4.538;2022-10-16T13:01:07;3.65;;;1.75;;
15990;SDS011;8100;50.994;4.538;2022-10-16T13:07:35;3.65;;;1.33;;
15990;SDS011;8100;50.994;4.538;2022-10-16T13:10:31;2.35;;;0.80;;
15990;SDS011;8100;50.994;4.538;2022-10-16T13:13:39;2.90;;;0.82;;
15990;SDS011;8100;50.994;4.538;2022-10-16T13:16:43;6.00;;;0.60;;
15990;SDS011;8100;50.994;4.538;2022-10-16T13:19:39;3.28;;;0.60;;
15990;SDS011;8100;50.994;4.538;2022-10-16T13:22:32;4.30;;;1.20;;
15990;SDS011;8100;50.994;4.538;2022-10-16T13:25:27;2.40;;;0.82;;
15990;SDS011;8100;50.994;4.538;2022-10-16T13:28:21;0.70;;;0.50;;
15990;SDS011;8100;50.994;4.538;2022-10-16T13:31:11;1.02;;;0.55;;
15990;SDS011;8100;50.994;4.538;2022-10-16T13:34:05;4.60;;;0.80;;
15990;SDS011;8100;50.994;4.538;2022-10-16T13:36:57;2.90;;;0.98;;
15990;SDS011;8100;50.994;4.538;2022-10-16T13:39:45;3.10;;;0.68;;
15990;SDS011;8100;50.994;4.538;2022-10-16T13:42:33;2.03;;;0.90;;
15990;SDS011;8100;50.994;4.538;2022-10-16T13:45:21;3.13;;;0.90;;
15990;SDS011;8100;50.994;4.538;2022-10-16T13:48:10;0.82;;;0.65;;
15990;SDS011;8100;50.994;4.538;2022-10-16T13:51:00;1.35;;;0.50;;
15990;SDS011;8100;50.994;4.538;2022-10-16T13:53:48;2.53;;;0.50;;
15990;SDS011;8100;50.994;4.538;2022-10-16T13:56:36;1.10;;;0.63;;
15990;SDS011;8100;50.994;4.538;2022-10-16T13:59:26;1.20;;;0.40;;
15990;SDS011;8100;50.994;4.538;2022-10-16T14:02:22;1.02;;;0.43;;
15990;SDS011;8100;50.994;4.538;2022-10-16T14:05:13;0.95;;;0.45;;
15990;SDS011;8100;50.994;4.538;2022-10-16T14:08:02;1.67;;;0.55;;
15990;SDS011;8100;50.994;4.538;2022-10-16T14:10:50;2.75;;;0.47;;
15990;SDS011;8100;50.994;4.538;2022-10-16T14:13:39;0.47;;;0.40;;
15990;SDS011;8100;50.994;4.538;2022-10-16T14:16:31;2.33;;;0.50;;
15990;SDS011;8100;50.994;4.538;2022-10-16T14:19:20;2.55;;;0.70;;
15990;SDS011;8100;50.994;4.538;2022-10-16T14:22:27;1.70;;;0.73;;
15990;SDS011;8100;50.994;4.538;2022-10-16T14:25:23;1.30;;;0.60;;
15990;SDS011;8100;50.994;4.538;2022-10-16T14:28:14;2.03;;;0.60;;
15990;SDS011;8100;50.994;4.538;2022-10-16T14:31:19;1.10;;;0.80;;
15990;SDS011;8100;50.994;4.538;2022-10-16T14:34:25;0.90;;;0.60;;
15990;SDS011;8100;50.994;4.538;2022-10-16T14:37:14;2.25;;;0.70;;
15990;SDS011;8100;50.994;4.538;2022-10-16T14:40:11;3.03;;;0.70;;
15990;SDS011;8100;50.994;4.538;2022-10-16T14:43:03;3.35;;;0.68;;
15990;SDS011;8100;50.994;4.538;2022-10-16T14:45:51;2.13;;;0.60;;
15990;SDS011;8100;50.994;4.538;2022-10-16T14:48:42;3.42;;;0.50;;
15990;SDS011;8100;50.994;4.538;2022-10-16T14:51:32;4.40;;;0.40;;
15990;SDS011;8100;50.994;4.538;2022-10-16T14:54:19;1.38;;;0.60;;
15990;SDS011;8100;50.994;4.538;2022-10-16T14:57:12;2.67;;;0.60;;
15990;SDS011;8100;50.994;4.538;2022-10-16T15:00:06;2.65;;;0.60;;
15990;SDS011;8100;50.994;4.538;2022-10-16T15:03:00;3.33;;;0.60;;
15990;SDS011;8100;50.994;4.538;2022-10-16T15:05:47;3.22;;;0.47;;
15990;SDS011;8100;50.994;4.538;2022-10-16T15:08:35;1.63;;;0.60;;
15990;SDS011;8100;50.994;4.538;2022-10-16T15:11:22;1.00;;;0.57;;
15990;SDS011;8100;50.994;4.538;2022-10-16T15:14:10;2.85;;;0.65;;
15990;SDS011;8100;50.994;4.538;2022-10-16T15:17:00;1.65;;;0.68;;
15990;SDS011;8100;50.994;4.538;2022-10-16T15:19:47;1.23;;;0.65;;
15990;SDS011;8100;50.994;4.538;2022-10-16T15:22:34;1.15;;;0.52;;
15990;SDS011;8100;50.994;4.538;2022-10-16T15:25:27;0.98;;;0.55;;
15990;SDS011;8100;50.994;4.538;2022-10-16T15:28:20;1.88;;;0.60;;
15990;SDS011;8100;50.994;4.538;2022-10-16T15:31:08;1.20;;;0.77;;
15990;SDS011;8100;50.994;4.538;2022-10-16T15:33:56;2.10;;;0.50;;
15990;SDS011;8100;50.994;4.538;2022-10-16T15:36:49;1.45;;;0.88;;
15990;SDS011;8100;50.994;4.538;2022-10-16T15:39:36;3.30;;;0.73;;
15990;SDS011;8100;50.994;4.538;2022-10-16T15:42:23;2.30;;;0.60;;
15990;SDS011;8100;50.994;4.538;2022-10-16T15:45:11;2.85;;;0.90;;
15990;SDS011;8100;50.994;4.538;2022-10-16T15:47:59;1.77;;;0.90;;
15990;SDS011;8100;50.994;4.538;2022-10-16T15:50:47;7.07;;;1.40;;
15990;SDS011;8100;50.994;4.538;2022-10-16T15:53:34;2.35;;;1.67;;
15990;SDS011;8100;50.994;4.538;2022-10-16T15:56:22;3.65;;;1.67;;
15990;SDS011;8100;50.994;4.538;2022-10-16T15:59:10;2.55;;;1.10;;
15990;SDS011;8100;50.994;4.538;2022-10-16T16:01:58;2.30;;;1.08;;
15990;SDS011;8100;50.994;4.538;2022-10-16T16:04:45;2.33;;;0.90;;
15990;SDS011;8100;50.994;4.538;2022-10-16T16:07:33;4.68;;;0.90;;
15990;SDS011;8100;50.994;4.538;2022-10-16T16:10:21;3.92;;;1.08;;
15990;SDS011;8100;50.994;4.538;2022-10-16T16:13:08;5.40;;;1.10;;
15990;SDS011;8100;50.994;4.538;2022-10-16T16:15:55;3.50;;;1.00;;
15990;SDS011;8100;50.994;4.538;2022-10-16T16:18:44;3.05;;;1.00;;
15990;SDS011;8100;50.994;4.538;2022-10-16T16:21:31;1.55;;;0.90;;
15990;SDS011;8100;50.994;4.538;2022-10-16T16:24:20;2.17;;;1.00;;
15990;SDS011;8100;50.994;4.538;2022-10-16T16:27:07;5.93;;;1.33;;
15990;SDS011;8100;50.994;4.538;2022-10-16T16:29:55;3.35;;;1.00;;
15990;SDS011;8100;50.994;4.538;2022-10-16T16:32:42;4.53;;;1.40;;
15990;SDS011;8100;50.994;4.538;2022-10-16T16:35:29;4.63;;;1.40;;
15990;SDS011;8100;50.994;4.538;2022-10-16T16:38:17;5.40;;;1.23;;
15990;SDS011;8100;50.994;4.538;2022-10-16T16:41:12;4.45;;;1.52;;
15990;SDS011;8100;50.994;4.538;2022-10-16T16:44:03;3.45;;;1.88;;
15990;SDS011;8100;50.994;4.538;2022-10-16T16:46:52;4.18;;;2.03;;
15990;SDS011;8100;50.994;4.538;2022-10-16T16:49:39;4.90;;;1.40;;
15990;SDS011;8100;50.994;4.538;2022-10-16T16:52:28;3.13;;;1.50;;
15990;SDS011;8100;50.994;4.538;2022-10-16T16:55:15;5.47;;;1.45;;
15990;SDS011;8100;50.994;4.538;2022-10-16T16:58:04;4.35;;;1.40;;
15990;SDS011;8100;50.994;4.538;2022-10-16T17:00:51;2.85;;;1.70;;
15990;SDS011;8100;50.994;4.538;2022-10-16T17:03:41;2.97;;;1.60;;
15990;SDS011;8100;50.994;4.538;2022-10-16T17:06:29;4.25;;;1.50;;
15990;SDS011;8100;50.994;4.538;2022-10-16T17:09:16;4.97;;;1.75;;
15990;SDS011;8100;50.994;4.538;2022-10-16T17:12:04;5.47;;;1.63;;
15990;SDS011;8100;50.994;4.538;2022-10-16T17:14:52;5.20;;;2.35;;
15990;SDS011;8100;50.994;4.538;2022-10-16T17:17:39;8.57;;;3.45;;
15990;SDS011;8100;50.994;4.538;2022-10-16T17:20:26;8.05;;;4.13;;
15990;SDS011;8100;50.994;4.538;2022-10-16T17:23:14;7.55;;;4.03;;
15990;SDS011;8100;50.994;4.538;2022-10-16T17:26:03;4.72;;;2.75;;
15990;SDS011;8100;50.994;4.538;2022-10-16T17:28:51;8.38;;;2.85;;
15990;SDS011;8100;50.994;4.538;2022-10-16T17:31:40;6.05;;;2.90;;
15990;SDS011;8100;50.994;4.538;2022-10-16T17:34:27;6.60;;;3.13;;